Time;durP1;ratioP1;P1;durP2;ratioP2;P2;SDS_P1;SDS_P2;PMS_P1;PMS_P2;Temp;Humidity;BMP_temperature;BMP_pressure;BME280_temperature;BME280_humidity;BME280_pressure;Samples;Min_cycle;Max_cycle;Signal;HPM_P1;HPM_P2
2023/10/15 00:00:18;;;;;;;3.93;1.27;;;8.30;1.00;;;;;;5075035;28;20219;-86
2023/10/15 00:02:48;;;;;;;2.77;1.63;;;8.30;1.00;;;;;;5073490;28;20240;-86
2023/10/15 00:05:16;;;;;;;2.70;1.37;;;8.30;1.00;;;;;;5073897;28;20778;-86
2023/10/15 00:07:42;;;;;;;2.10;1.30;;;8.30;1.00;;;;;;5073917;28;20168;-86
2023/10/15 00:10:13;;;;;;;5.13;1.70;;;8.30;1.00;;;;;;5073727;28;20280;-86
2023/10/15 00:12:39;;;;;;;3.37;1.50;;;8.30;1.00;;;;;;5074425;28;20643;-85
2023/10/15 00:15:43;;;;;;;3.77;1.60;;;8.40;1.00;;;;;;5072193;28;20179;-86
2023/10/15 00:18:09;;;;;;;2.43;1.40;;;8.30;1.00;;;;;;5070642;28;20226;-86
2023/10/15 00:20:35;;;;;;;3.17;1.70;;;8.20;1.00;;;;;;5074572;28;20208;-86
2023/10/15 00:23:04;;;;;;;3.13;1.60;;;8.00;1.00;;;;;;5074507;28;20602;-86
2023/10/15 00:25:35;;;;;;;6.40;1.80;;;8.00;1.00;;;;;;5074506;28;20173;-88
2023/10/15 00:28:01;;;;;;;3.67;1.40;;;8.00;1.00;;;;;;5056865;28;20184;-86
2023/10/15 00:30:33;;;;;;;4.80;1.80;;;8.00;1.00;;;;;;5074341;28;20276;-86
2023/10/15 00:33:03;;;;;;;5.07;1.70;;;7.90;1.00;;;;;;5056501;28;20173;-86
2023/10/15 00:35:33;;;;;;;2.63;1.50;;;7.80;1.00;;;;;;5056532;28;20175;-86
2023/10/15 00:38:00;;;;;;;3.87;1.73;;;7.80;1.00;;;;;;5074391;28;20822;-86
2023/10/15 00:40:27;;;;;;;2.87;1.60;;;7.80;1.00;;;;;;5074385;28;20207;-86
2023/10/15 00:42:53;;;;;;;5.30;1.90;;;7.80;1.00;;;;;;5056179;28;20173;-86
2023/10/15 00:45:21;;;;;;;4.87;1.90;;;7.90;1.00;;;;;;5056351;28;20176;-85
2023/10/15 00:48:00;;;;;;;3.80;1.60;;;7.90;1.00;;;;;;5056439;28;20198;-86
2023/10/15 00:50:31;;;;;;;4.87;2.10;;;7.80;1.00;;;;;;5056244;28;20204;-86
2023/10/15 00:52:59;;;;;;;3.77;2.00;;;7.80;1.00;;;;;;5055915;28;20266;-87
2023/10/15 00:55:25;;;;;;;3.23;1.80;;;7.80;1.00;;;;;;5055955;28;20180;-86
2023/10/15 00:57:56;;;;;;;6.43;1.80;;;7.70;1.00;;;;;;5056119;28;20190;-86
2023/10/15 01:00:48;;;;;;;3.97;1.77;;;7.70;1.00;;;;;;5107639;22;20283;-85
2023/10/15 01:03:14;;;;;;;3.67;1.87;;;7.70;1.50;;;;;;5054063;28;20554;-85
2023/10/15 01:05:53;;;;;;;3.30;1.77;;;7.70;1.00;;;;;;5036262;28;20256;-86
2023/10/15 01:08:24;;;;;;;3.13;1.90;;;7.70;1.00;;;;;;5036096;28;20172;-85
2023/10/15 01:11:06;;;;;;;2.17;1.70;;;7.70;1.00;;;;;;5053813;28;20195;-85
2023/10/15 01:13:31;;;;;;;3.27;1.60;;;7.70;1.00;;;;;;5036339;28;20180;-85
2023/10/15 01:16:02;;;;;;;6.20;2.20;;;7.60;1.00;;;;;;5053819;28;20558;-85
2023/10/15 01:18:28;;;;;;;3.50;1.73;;;7.50;1.00;;;;;;5035871;28;20184;-85
2023/10/15 01:20:53;;;;;;;4.03;1.80;;;7.50;15.40;;;;;;5035611;28;20216;-86
2023/10/15 01:26:08;;;;;;;4.50;2.00;;;7.50;1.60;;;;;;5053830;28;20214;-85
2023/10/15 01:28:37;;;;;;;2.50;1.57;;;7.60;1.00;;;;;;5053672;28;20212;-85
2023/10/15 01:31:06;;;;;;;4.73;1.90;;;7.60;1.00;;;;;;5035395;28;20195;-85
2023/10/15 01:33:47;;;;;;;5.33;2.07;;;7.50;1.00;;;;;;5035591;28;20176;-86
2023/10/15 01:36:26;;;;;;;3.67;1.60;;;7.40;1.00;;;;;;5035887;28;20173;-85
2023/10/15 01:38:57;;;;;;;3.10;1.90;;;7.40;1.00;;;;;;5035891;28;20176;-85
2023/10/15 01:41:25;;;;;;;3.70;1.80;;;7.20;1.00;;;;;;5052764;28;20258;-85
2023/10/15 01:43:53;;;;;;;3.80;2.03;;;7.20;1.00;;;;;;5053546;28;20199;-85
2023/10/15 01:46:48;;;;;;;3.27;1.80;;;7.10;1.00;;;;;;5035501;28;20193;-85
2023/10/15 01:49:18;;;;;;;3.80;1.87;;;7.10;1.00;;;;;;5053419;28;20194;-85
2023/10/15 01:51:44;;;;;;;3.40;1.77;;;6.90;1.00;;;;;;5034535;28;20575;-85
2023/10/15 01:54:12;;;;;;;3.53;1.87;;;6.80;1.00;;;;;;5053471;28;20174;-85
2023/10/15 01:56:37;;;;;;;3.43;1.63;;;6.70;25.50;;;;;;5053264;28;20173;-85
2023/10/15 01:59:10;;;;;;;4.90;1.90;;;6.60;27.50;;;;;;5035558;28;20169;-85
2023/10/15 02:01:49;;;;;;;3.40;1.93;;;6.60;25.80;;;;;;5052853;28;20753;-85
2023/10/15 02:04:27;;;;;;;1.93;1.70;;;6.60;13.70;;;;;;5035068;28;20256;-86
2023/10/15 02:06:53;;;;;;;2.87;1.90;;;6.50;1.00;;;;;;5035380;28;20174;-85
2023/10/15 02:09:22;;;;;;;6.13;2.00;;;6.40;29.80;;;;;;5052997;28;20638;-85
2023/10/15 02:11:48;;;;;;;4.63;2.13;;;6.40;65.90;;;;;;5052642;28;20186;-85
2023/10/15 02:14:27;;;;;;;4.40;1.77;;;6.40;95.90;;;;;;5035170;28;20175;-86
2023/10/15 02:16:53;;;;;;;3.93;1.90;;;6.50;97.10;;;;;;5052606;28;20193;-85
2023/10/15 02:19:34;;;;;;;4.70;2.20;;;6.60;86.80;;;;;;5034270;28;20202;-85
2023/10/15 02:22:01;;;;;;;2.53;1.70;;;6.60;69.70;;;;;;5034481;28;20201;-85
2023/10/15 02:24:32;;;;;;;6.50;2.20;;;6.60;93.40;;;;;;5035050;28;20170;-85
2023/10/15 02:26:58;;;;;;;4.67;2.10;;;6.70;99.90;;;;;;5052599;28;20178;-85
2023/10/15 02:32:06;;;;;;;5.23;2.20;;;6.70;80.40;;;;;;5052450;28;20672;-85
2023/10/15 02:34:31;;;;;;;5.73;2.40;;;6.70;99.90;;;;;;5035205;28;20177;-85
2023/10/15 02:37:03;;;;;;;8.00;2.83;;;6.80;88.50;;;;;;5052850;28;20185;-85
2023/10/15 02:39:36;;;;;;;4.20;2.40;;;6.80;99.90;;;;;;5034915;28;20187;-85
2023/10/15 02:42:02;;;;;;;4.27;2.40;;;6.90;99.90;;;;;;5052374;28;20186;-85
2023/10/15 02:44:32;;;;;;;4.73;2.63;;;6.90;99.90;;;;;;5034741;28;20178;-85
2023/10/15 02:49:51;;;;;;;5.43;2.53;;;6.60;99.90;;;;;;5053014;28;20257;-85
2023/10/15 02:52:20;;;;;;;5.10;2.60;;;6.50;99.90;;;;;;5034165;28;20235;-85
2023/10/15 02:54:46;;;;;;;4.07;2.53;;;6.50;99.90;;;;;;5053218;28;20189;-85
2023/10/15 02:57:16;;;;;;;6.67;2.63;;;6.50;99.90;;;;;;5034680;28;20263;-85
2023/10/15 02:59:55;;;;;;;7.27;2.77;;;6.50;99.90;;;;;;5052818;28;20174;-85
2023/10/15 03:02:21;;;;;;;4.87;2.70;;;6.40;99.90;;;;;;5051727;28;20201;-85
2023/10/15 03:04:55;;;;;;;5.23;2.60;;;6.50;99.90;;;;;;5034732;28;20193;-85
2023/10/15 03:07:30;;;;;;;6.73;2.90;;;6.60;99.90;;;;;;5034999;28;20183;-85
2023/10/15 03:09:56;;;;;;;5.23;2.83;;;6.60;99.90;;;;;;5034918;28;20735;-85
2023/10/15 03:12:23;;;;;;;6.53;2.57;;;6.70;99.90;;;;;;5052051;28;20571;-86
2023/10/15 03:14:49;;;;;;;5.37;2.60;;;6.70;99.90;;;;;;5052802;28;20182;-85
2023/10/15 03:17:24;;;;;;;5.00;2.73;;;6.60;99.90;;;;;;5052774;28;20195;-86
2023/10/15 03:19:52;;;;;;;5.47;2.77;;;6.60;99.90;;;;;;5052481;28;20173;-85
2023/10/15 03:22:17;;;;;;;6.33;2.90;;;6.60;99.90;;;;;;5051978;28;20205;-85
2023/10/15 03:24:44;;;;;;;6.60;2.80;;;6.60;99.90;;;;;;5052492;28;20166;-85
2023/10/15 03:27:16;;;;;;;5.13;3.23;;;6.50;99.90;;;;;;5034369;28;20169;-85
2023/10/15 03:29:42;;;;;;;4.77;2.77;;;6.50;99.90;;;;;;5052646;28;20168;-85
2023/10/15 03:32:12;;;;;;;6.70;3.13;;;6.40;99.90;;;;;;5037326;28;20178;-85
2023/10/15 03:35:32;;;;;;;4.90;2.50;;;6.40;99.90;;;;;;5038492;28;20205;-85
2023/10/15 03:37:27;;;;;;;6.00;2.70;;;6.50;99.90;;;;;;5041629;28;20186;-85
2023/10/15 03:39:55;;;;;;;6.93;3.20;;;6.40;99.90;;;;;;5037972;28;20197;-85
2023/10/15 03:42:27;;;;;;;5.87;2.80;;;6.50;99.90;;;;;;5055298;28;20232;-86
2023/10/15 03:44:59;;;;;;;5.20;2.53;;;6.50;99.90;;;;;;5038344;28;20589;-85
2023/10/15 03:47:26;;;;;;;4.53;2.80;;;6.40;99.90;;;;;;5056029;28;20180;-85
2023/10/15 03:49:52;;;;;;;6.17;2.73;;;6.40;99.90;;;;;;5038277;28;20177;-86
2023/10/15 03:52:20;;;;;;;6.13;2.97;;;6.40;99.90;;;;;;5055454;28;20171;-87
2023/10/15 03:54:50;;;;;;;4.43;2.93;;;6.30;99.90;;;;;;5038103;28;20180;-85
2023/10/15 03:57:27;;;;;;;5.13;2.90;;;6.20;99.90;;;;;;5055873;28;20178;-85
2023/10/15 03:59:53;;;;;;;6.50;3.13;;;6.20;99.90;;;;;;5037816;28;20208;-85
2023/10/15 04:02:54;;;;;;;6.23;2.97;;;6.30;99.90;;;;;;5037322;28;20209;-85
2023/10/15 04:05:20;;;;;;;8.23;3.20;;;6.20;99.90;;;;;;5037901;28;20162;-85
2023/10/15 04:07:49;;;;;;;5.40;2.93;;;6.20;99.90;;;;;;5037371;28;20197;-85
2023/10/15 04:10:23;;;;;;;5.77;3.07;;;6.20;99.90;;;;;;5037322;28;20285;-85
2023/10/15 04:12:50;;;;;;;6.20;3.20;;;6.20;99.90;;;;;;5054854;28;20178;-85
2023/10/15 04:15:17;;;;;;;5.57;3.10;;;6.30;99.90;;;;;;5037109;28;20670;-85
2023/10/15 04:17:48;;;;;;;6.73;3.83;;;6.30;99.90;;;;;;5037328;28;20179;-85
2023/10/15 04:20:15;;;;;;;6.53;2.97;;;6.40;99.90;;;;;;5054838;28;20248;-85
2023/10/15 04:22:44;;;;;;;6.03;3.27;;;6.30;99.90;;;;;;5054513;28;20649;-85
2023/10/15 04:25:26;;;;;;;5.00;3.20;;;6.30;99.90;;;;;;5054819;28;20174;-85
2023/10/15 04:27:53;;;;;;;6.20;3.00;;;6.30;99.90;;;;;;5036981;28;20179;-85
2023/10/15 04:30:23;;;;;;;3.93;2.63;;;6.30;99.90;;;;;;5054591;28;20203;-87
2023/10/15 04:32:49;;;;;;;8.33;3.40;;;6.20;99.90;;;;;;5036509;28;20189;-85
2023/10/15 04:35:32;;;;;;;4.50;3.00;;;6.20;99.90;;;;;;5037032;28;20170;-85
2023/10/15 04:37:59;;;;;;;5.83;3.13;;;6.20;99.90;;;;;;5054654;28;20178;-84
2023/10/15 04:40:24;;;;;;;4.63;2.90;;;6.10;99.90;;;;;;5054600;28;20193;-85
2023/10/15 04:42:51;;;;;;;5.23;3.07;;;6.10;99.90;;;;;;5053399;28;20216;-85
2023/10/15 04:45:23;;;;;;;5.03;3.47;;;6.20;99.90;;;;;;5054719;28;20179;-86
2023/10/15 04:48:02;;;;;;;6.57;3.43;;;6.20;99.90;;;;;;5054636;28;20170;-85
2023/10/15 04:50:35;;;;;;;5.83;3.67;;;6.20;99.90;;;;;;5054618;28;20623;-85
2023/10/15 04:53:13;;;;;;;5.50;3.10;;;6.30;99.90;;;;;;5035955;28;20219;-85
2023/10/15 04:55:43;;;;;;;6.77;3.30;;;6.20;99.90;;;;;;5054550;28;20188;-84
2023/10/15 04:58:10;;;;;;;6.43;2.93;;;6.10;99.90;;;;;;5036522;28;20548;-85
2023/10/15 05:00:39;;;;;;;6.80;2.90;;;6.20;99.90;;;;;;5054164;28;20275;-85
2023/10/15 05:03:04;;;;;;;7.13;3.10;;;6.10;99.90;;;;;;5036280;28;20658;-85
2023/10/15 05:05:31;;;;;;;4.57;2.77;;;6.10;99.90;;;;;;5054052;28;20203;-85
2023/10/15 05:07:59;;;;;;;5.90;2.80;;;6.10;99.90;;;;;;5036265;28;20178;-85
2023/10/15 05:10:32;;;;;;;5.97;2.90;;;6.10;99.90;;;;;;5036318;28;20204;-82
2023/10/15 05:12:59;;;;;;;4.17;2.50;;;6.10;99.90;;;;;;5053893;28;20166;-82
2023/10/15 05:15:27;;;;;;;3.93;2.67;;;6.10;99.90;;;;;;5036089;28;20208;-82
2023/10/15 05:17:53;;;;;;;5.37;2.73;;;6.10;99.90;;;;;;5035740;28;20179;-81
2023/10/15 05:20:20;;;;;;;6.70;2.60;;;6.10;99.90;;;;;;5053423;28;20197;-82
2023/10/15 05:22:47;;;;;;;7.17;2.80;;;6.10;99.90;;;;;;5035351;28;20174;-82
2023/10/15 05:25:18;;;;;;;5.87;2.57;;;6.10;99.90;;;;;;5053464;28;20173;-82
2023/10/15 05:27:44;;;;;;;3.93;2.17;;;6.20;99.90;;;;;;5053548;28;20178;-81
2023/10/15 05:30:12;;;;;;;5.17;2.80;;;6.20;99.90;;;;;;5053884;28;20193;-82
2023/10/15 05:32:37;;;;;;;4.83;2.23;;;6.20;99.90;;;;;;5035240;28;20646;-82
2023/10/15 05:35:06;;;;;;;6.47;2.10;;;6.10;99.90;;;;;;5053954;28;20181;-81
2023/10/15 05:37:32;;;;;;;6.83;2.17;;;6.20;99.90;;;;;;5035622;28;20198;-81
2023/10/15 05:39:57;;;;;;;7.20;3.20;;;6.30;99.90;;;;;;5035824;28;20271;-82
2023/10/15 05:42:23;;;;;;;7.17;2.70;;;6.30;99.90;;;;;;5034943;28;20265;-81
2023/10/15 05:44:48;;;;;;;4.47;2.10;;;6.30;99.90;;;;;;5035298;28;20200;-81
2023/10/15 05:47:14;;;;;;;3.57;2.30;;;6.30;99.90;;;;;;5035344;28;20178;-82
2023/10/15 05:49:39;;;;;;;4.83;2.60;;;6.20;99.90;;;;;;5035194;28;20170;-82
2023/10/15 05:52:06;;;;;;;6.03;2.20;;;6.30;99.90;;;;;;5034890;28;20172;-82
2023/10/15 05:54:34;;;;;;;6.13;2.10;;;6.20;99.90;;;;;;5052330;28;20180;-82
2023/10/15 05:57:02;;;;;;;3.33;2.03;;;6.10;99.90;;;;;;5035081;28;20174;-81
2023/10/15 05:59:28;;;;;;;4.73;2.07;;;6.10;99.90;;;;;;5053087;28;20260;-81
2023/10/15 06:01:53;;;;;;;5.17;2.00;;;6.10;99.90;;;;;;5052229;28;20281;-81
2023/10/15 06:04:19;;;;;;;10.83;4.37;;;6.20;99.90;;;;;;5053296;28;20265;-82
2023/10/15 06:06:44;;;;;;;15.33;9.77;;;6.20;99.90;;;;;;5053093;28;20575;-81
2023/10/15 06:09:11;;;;;;;6.20;3.23;;;6.20;99.90;;;;;;5035050;28;20247;-81
2023/10/15 06:11:37;;;;;;;5.03;3.83;;;6.20;99.90;;;;;;5052526;28;20268;-82
2023/10/15 06:14:04;;;;;;;7.13;3.87;;;6.20;99.90;;;;;;5052881;28;20166;-81
2023/10/15 06:16:30;;;;;;;5.93;3.20;;;6.20;99.90;;;;;;5052825;28;20184;-81
2023/10/15 06:18:57;;;;;;;4.00;2.37;;;6.20;99.90;;;;;;5035169;28;20169;-82
2023/10/15 06:21:23;;;;;;;3.57;1.97;;;6.20;99.90;;;;;;5052076;28;20221;-82
2023/10/15 06:23:49;;;;;;;4.60;2.13;;;6.10;99.90;;;;;;5053061;28;20181;-82
2023/10/15 06:26:14;;;;;;;6.67;2.30;;;6.10;99.90;;;;;;5052931;28;20170;-82
2023/10/15 06:28:40;;;;;;;5.53;2.10;;;6.10;99.90;;;;;;5052714;28;20646;-82
2023/10/15 06:31:09;;;;;;;4.50;2.10;;;6.10;99.90;;;;;;5034075;28;20193;-83
2023/10/15 06:33:35;;;;;;;3.27;2.00;;;6.20;99.90;;;;;;5052880;28;20181;-82
2023/10/15 06:36:00;;;;;;;6.00;2.40;;;6.20;99.90;;;;;;5052589;28;20168;-82
2023/10/15 06:38:26;;;;;;;3.20;1.93;;;6.20;99.90;;;;;;5034656;28;20165;-83
2023/10/15 06:40:52;;;;;;;6.27;2.10;;;6.20;99.90;;;;;;5052411;28;20205;-81
2023/10/15 06:43:18;;;;;;;3.87;2.10;;;6.20;99.90;;;;;;5052159;28;20177;-82
2023/10/15 06:45:44;;;;;;;5.27;2.33;;;6.30;99.90;;;;;;5034556;28;20202;-82
2023/10/15 06:48:09;;;;;;;7.27;2.33;;;6.30;99.90;;;;;;5056224;28;20632;-81
2023/10/15 06:50:35;;;;;;;3.43;2.20;;;6.30;99.90;;;;;;5032919;28;20223;-81
2023/10/15 06:53:05;;;;;;;6.80;3.00;;;6.40;99.90;;;;;;5032826;28;20178;-82
2023/10/15 06:55:31;;;;;;;5.27;2.60;;;6.50;99.90;;;;;;5032125;28;20181;-80
2023/10/15 06:57:57;;;;;;;5.87;2.50;;;6.60;99.90;;;;;;5031698;28;20232;-81
2023/10/15 07:00:22;;;;;;;5.60;2.97;;;6.80;99.90;;;;;;5092402;22;20212;-82
2023/10/15 07:02:49;;;;;;;7.13;2.80;;;6.90;99.90;;;;;;5051773;28;20264;-80
2023/10/15 07:05:16;;;;;;;5.43;2.87;;;7.00;99.90;;;;;;5047940;28;20174;-83
2023/10/15 07:07:45;;;;;;;5.87;2.50;;;7.00;99.90;;;;;;5055933;28;20228;-83
2023/10/15 07:10:15;;;;;;;6.10;2.60;;;7.00;99.90;;;;;;5050422;28;20174;-82
2023/10/15 07:12:45;;;;;;;5.03;2.60;;;7.10;99.90;;;;;;5053802;28;20173;-83
2023/10/15 07:15:13;;;;;;;6.97;2.70;;;7.30;99.90;;;;;;5056257;28;20173;-81
2023/10/15 07:17:39;;;;;;;7.67;2.30;;;7.20;99.90;;;;;;5056153;28;20169;-81
2023/10/15 07:20:14;;;;;;;5.43;2.63;;;7.30;99.90;;;;;;5052250;28;20177;-80
2023/10/15 07:22:44;;;;;;;6.47;2.60;;;7.40;99.90;;;;;;5054966;28;20244;-81
2023/10/15 07:25:10;;;;;;;4.53;2.70;;;7.30;99.90;;;;;;5038325;28;20174;-81
2023/10/15 07:27:41;;;;;;;7.17;2.60;;;7.30;99.90;;;;;;5055719;28;20208;-81
2023/10/15 07:30:13;;;;;;;6.23;2.47;;;7.30;99.90;;;;;;5037722;28;20174;-81
2023/10/15 07:32:43;;;;;;;6.37;2.90;;;7.30;99.90;;;;;;5036970;28;20174;-81
2023/10/15 07:35:12;;;;;;;8.97;3.07;;;7.30;99.90;;;;;;5052558;28;20243;-80
2023/10/15 07:37:42;;;;;;;10.13;2.93;;;7.30;99.90;;;;;;5051420;28;20185;-82
2023/10/15 07:40:16;;;;;;;4.87;2.93;;;7.30;99.90;;;;;;5055493;28;20204;-81
2023/10/15 07:42:43;;;;;;;5.63;2.60;;;7.30;99.90;;;;;;5036829;28;20170;-81
2023/10/15 07:45:09;;;;;;;4.47;2.60;;;7.30;99.90;;;;;;5041733;28;20178;-80
2023/10/15 07:47:37;;;;;;;5.60;2.63;;;7.30;99.90;;;;;;5019418;28;20178;-81
2023/10/15 07:50:07;;;;;;;5.63;2.50;;;7.30;99.90;;;;;;5035254;28;20175;-80
2023/10/15 07:52:33;;;;;;;6.30;2.67;;;7.30;99.90;;;;;;5035212;28;20186;-81
2023/10/15 07:54:59;;;;;;;4.13;2.37;;;7.30;99.90;;;;;;5017508;28;20178;-81
2023/10/15 07:57:26;;;;;;;7.77;2.80;;;7.30;99.90;;;;;;5017662;28;20178;-80
2023/10/15 07:59:54;;;;;;;4.27;2.40;;;7.40;99.90;;;;;;5035833;28;20178;-80
2023/10/15 08:02:21;;;;;;;5.30;2.43;;;7.40;99.90;;;;;;5034511;28;20217;-80
2023/10/15 08:04:47;;;;;;;4.17;2.10;;;7.50;99.90;;;;;;5046423;28;20177;-79
2023/10/15 08:07:12;;;;;;;5.47;2.50;;;7.50;99.90;;;;;;5046189;28;20171;-79
2023/10/15 08:09:38;;;;;;;7.73;2.83;;;7.60;99.90;;;;;;5048257;28;20240;-77
2023/10/15 08:12:04;;;;;;;5.30;2.70;;;7.70;99.90;;;;;;5054401;28;20217;-77
2023/10/15 08:14:30;;;;;;;9.70;3.20;;;7.70;99.90;;;;;;5053639;28;20187;-79
2023/10/15 08:16:55;;;;;;;5.47;3.30;;;7.80;99.90;;;;;;5044966;28;20182;-78
2023/10/15 08:19:21;;;;;;;6.73;3.33;;;7.90;99.90;;;;;;5054607;28;20177;-80
2023/10/15 08:21:46;;;;;;;5.17;2.87;;;7.90;99.90;;;;;;5054349;28;20602;-79
2023/10/15 08:24:14;;;;;;;6.20;3.30;;;7.90;99.90;;;;;;5054687;28;20212;-80
2023/10/15 08:26:41;;;;;;;6.50;3.30;;;8.00;99.90;;;;;;5054917;28;20175;-79
2023/10/15 08:29:09;;;;;;;5.03;3.13;;;7.90;99.90;;;;;;5053829;28;20178;-79
2023/10/15 08:31:36;;;;;;;7.33;3.00;;;7.80;99.90;;;;;;5054059;28;20197;-79
2023/10/15 08:34:02;;;;;;;5.70;3.00;;;7.80;99.90;;;;;;5055001;28;20176;-80
2023/10/15 08:36:27;;;;;;;6.17;3.57;;;7.80;99.90;;;;;;5054932;28;20177;-80
2023/10/15 08:38:53;;;;;;;6.43;4.10;;;7.90;99.90;;;;;;5053870;28;20179;-79
2023/10/15 08:41:23;;;;;;;4.73;2.70;;;7.90;99.90;;;;;;5047347;28;20351;-79
2023/10/15 08:43:51;;;;;;;5.80;3.37;;;7.90;99.90;;;;;;5045125;28;20162;-78
2023/10/15 08:46:22;;;;;;;4.53;2.90;;;8.00;99.90;;;;;;5053398;28;20232;-79
2023/10/15 08:48:49;;;;;;;6.17;2.90;;;7.90;99.90;;;;;;5054184;28;20180;-79
2023/10/15 08:51:21;;;;;;;8.23;3.57;;;7.90;99.90;;;;;;5053643;28;20236;-79
2023/10/15 08:53:50;;;;;;;8.77;3.20;;;7.80;99.90;;;;;;5053021;28;20227;-79
2023/10/15 08:56:21;;;;;;;5.77;3.60;;;7.80;99.90;;;;;;5053005;28;20189;-79
2023/10/15 08:58:52;;;;;;;3.93;2.93;;;7.80;99.90;;;;;;5052871;28;20268;-79
2023/10/15 09:01:19;;;;;;;6.30;3.10;;;7.80;99.90;;;;;;5052227;28;20584;-79
2023/10/15 09:03:45;;;;;;;5.93;3.33;;;7.90;99.90;;;;;;5051888;28;20201;-79
2023/10/15 09:06:12;;;;;;;4.93;3.10;;;7.90;99.90;;;;;;5051898;28;20195;-80
2023/10/15 09:08:41;;;;;;;3.97;2.70;;;8.00;99.90;;;;;;5051220;28;20170;-79
2023/10/15 09:11:12;;;;;;;9.17;3.13;;;8.10;99.90;;;;;;5049257;28;20651;-79
2023/10/15 09:13:38;;;;;;;6.90;3.40;;;8.20;99.90;;;;;;5048627;28;20178;-79
2023/10/15 09:16:06;;;;;;;5.07;3.00;;;8.20;96.80;;;;;;5053486;28;20178;-79
2023/10/15 09:18:36;;;;;;;3.87;2.63;;;8.20;1.00;;;;;;5053380;28;20178;-79
2023/10/15 09:21:04;;;;;;;4.17;3.20;;;8.20;99.90;;;;;;5035038;28;20212;-79
2023/10/15 09:23:37;;;;;;;5.50;3.00;;;8.20;1.00;;;;;;5035674;28;20175;-79
2023/10/15 09:26:05;;;;;;;4.20;3.10;;;8.20;1.00;;;;;;5038298;28;20185;-79
2023/10/15 09:28:32;;;;;;;3.77;2.70;;;8.20;99.90;;;;;;5052691;28;20653;-79
2023/10/15 09:31:05;;;;;;;4.47;2.93;;;8.20;1.00;;;;;;5037527;28;20193;-79
2023/10/15 09:33:31;;;;;;;5.23;2.93;;;8.30;1.00;;;;;;5026558;28;20210;-79
2023/10/15 09:35:57;;;;;;;3.10;2.80;;;8.20;1.00;;;;;;5041820;28;20181;-80
2023/10/15 09:38:23;;;;;;;4.43;2.90;;;8.20;99.90;;;;;;5030105;28;20272;-79
2023/10/15 09:40:49;;;;;;;3.67;2.63;;;8.20;23.60;;;;;;5052623;28;20296;-80
2023/10/15 09:43:15;;;;;;;5.70;3.43;;;8.20;99.90;;;;;;5052688;28;20638;-79
2023/10/15 09:45:44;;;;;;;6.17;3.20;;;8.20;35.40;;;;;;5035388;28;20170;-79
2023/10/15 09:48:10;;;;;;;3.53;2.90;;;8.20;1.00;;;;;;5034953;28;20657;-79
2023/10/15 09:50:38;;;;;;;4.57;3.63;;;8.20;99.90;;;;;;5035040;28;20197;-79
2023/10/15 09:53:11;;;;;;;3.10;2.80;;;8.30;99.90;;;;;;5051950;28;20168;-80
2023/10/15 09:55:40;;;;;;;5.33;2.67;;;8.30;1.00;;;;;;5034850;28;20181;-79
2023/10/15 09:58:09;;;;;;;4.37;3.13;;;8.30;99.90;;;;;;5034779;28;20183;-79
2023/10/15 10:03:48;;;;;;;3.23;2.77;;;8.30;99.90;;;;;;5052205;28;20180;-79
2023/10/15 10:06:47;;;;;;;3.20;2.50;;;8.40;99.90;;;;;;5020243;28;20180;-79
2023/10/15 10:09:36;;;;;;;3.60;2.80;;;8.40;1.00;;;;;;5022387;28;20173;-79
2023/10/15 10:12:40;;;;;;;3.53;2.47;;;8.30;5.20;;;;;;5052150;28;20203;-82
2023/10/15 10:15:35;;;;;;;5.30;2.57;;;8.40;1.00;;;;;;5054683;28;20177;-80
2023/10/15 10:18:01;;;;;;;3.57;2.20;;;8.40;1.00;;;;;;5034536;28;20238;-82
2023/10/15 10:20:31;;;;;;;3.53;1.80;;;8.40;1.00;;;;;;5033952;28;20197;-82
2023/10/15 10:23:00;;;;;;;2.90;2.00;;;8.50;1.00;;;;;;5051740;28;20181;-82
2023/10/15 10:25:42;;;;;;;3.23;1.70;;;8.70;1.00;;;;;;5051736;28;20199;-82
2023/10/15 10:28:11;;;;;;;4.10;2.00;;;8.90;1.00;;;;;;5052491;28;20166;-82
2023/10/15 10:30:38;;;;;;;4.37;2.10;;;9.10;1.00;;;;;;5033831;28;20218;-83
2023/10/15 10:33:04;;;;;;;3.87;2.00;;;9.20;1.00;;;;;;5051513;28;20178;-81
2023/10/15 10:35:46;;;;;;;2.97;2.07;;;9.20;99.90;;;;;;5051918;28;20185;-82
2023/10/15 10:38:18;;;;;;;3.10;2.10;;;9.20;1.00;;;;;;5051893;28;20207;-82
2023/10/15 10:40:51;;;;;;;3.87;2.10;;;9.30;99.90;;;;;;5052881;28;20196;-81
2023/10/15 10:43:17;;;;;;;2.27;1.80;;;9.40;99.90;;;;;;5056101;28;20184;-82
2023/10/15 10:45:55;;;;;;;2.57;1.87;;;9.50;1.00;;;;;;5056046;28;20168;-82
2023/10/15 10:48:29;;;;;;;2.53;1.83;;;9.60;1.00;;;;;;5038292;28;20169;-82
2023/10/15 10:51:13;;;;;;;1.90;1.60;;;9.90;99.90;;;;;;5055509;28;20223;-78
2023/10/15 10:53:59;;;;;;;1.57;1.47;;;9.90;99.90;;;;;;5026485;28;20658;-81
2023/10/15 10:56:44;;;;;;;1.70;1.37;;;9.80;31.60;;;;;;5045005;28;20181;-81
2023/10/15 10:59:11;;;;;;;2.57;1.70;;;9.50;1.00;;;;;;5055349;28;20555;-82
2023/10/15 11:01:47;;;;;;;1.97;1.40;;;9.70;77.40;;;;;;5036368;28;20216;-81
2023/10/15 11:04:16;;;;;;;2.40;1.50;;;9.90;1.00;;;;;;5038090;28;20670;-81
2023/10/15 11:06:45;;;;;;;1.00;0.90;;;10.00;1.00;;;;;;5055431;28;20645;-82
2023/10/15 11:09:20;;;;;;;1.40;1.20;;;9.80;99.90;;;;;;5037547;28;20178;-81
2023/10/15 11:11:51;;;;;;;1.30;1.20;;;9.40;1.00;;;;;;5025317;28;20205;-81
2023/10/15 11:14:29;;;;;;;1.70;1.40;;;9.10;65.00;;;;;;5018016;28;20180;-81
2023/10/15 11:16:56;;;;;;;1.83;1.53;;;9.00;99.90;;;;;;5031876;28;20234;-81
2023/10/15 11:19:24;;;;;;;4.07;1.97;;;8.90;1.00;;;;;;5034689;28;20640;-80
2023/10/15 11:21:52;;;;;;;2.47;1.40;;;8.70;1.00;;;;;;5023934;28;20253;-81
2023/10/15 11:24:23;;;;;;;2.30;2.10;;;8.70;1.00;;;;;;5024923;28;20184;-80
2023/10/15 11:26:49;;;;;;;2.93;1.57;;;8.70;1.00;;;;;;5034915;28;20177;-81
2023/10/15 11:29:18;;;;;;;2.70;1.20;;;9.00;99.90;;;;;;5017133;28;20305;-81
2023/10/15 11:31:47;;;;;;;2.03;1.30;;;9.50;1.00;;;;;;5045344;28;20217;-81
2023/10/15 11:34:16;;;;;;;1.60;1.50;;;9.50;67.60;;;;;;5054474;28;20227;-81
2023/10/15 11:36:43;;;;;;;2.40;1.40;;;9.40;1.00;;;;;;5055158;28;20177;-83
2023/10/15 11:39:18;;;;;;;1.60;1.30;;;9.40;1.00;;;;;;5055476;28;20649;-82
2023/10/15 11:41:49;;;;;;;1.57;1.20;;;9.70;1.00;;;;;;5055063;28;20211;-81
2023/10/15 11:44:16;;;;;;;1.57;1.40;;;10.20;99.90;;;;;;5055951;28;20591;-81
2023/10/15 11:46:41;;;;;;;1.27;1.17;;;10.30;1.00;;;;;;5037372;28;20262;-81
2023/10/15 11:49:09;;;;;;;1.87;1.20;;;10.70;1.00;;;;;;5037571;28;20219;-81
2023/10/15 11:51:35;;;;;;;2.13;1.37;;;11.00;99.90;;;;;;5054292;28;20197;-81
2023/10/15 11:54:01;;;;;;;1.40;0.87;;;11.20;1.00;;;;;;5031076;28;20185;-82
2023/10/15 11:56:31;;;;;;;1.40;1.10;;;11.40;1.00;;;;;;5035060;28;20186;-82
2023/10/15 11:58:58;;;;;;;1.80;1.00;;;11.10;99.90;;;;;;5035398;28;20200;-82
2023/10/15 12:01:24;;;;;;;1.27;1.10;;;10.70;99.90;;;;;;5034572;28;20211;-81
2023/10/15 12:03:50;;;;;;;1.13;0.90;;;10.50;99.90;;;;;;5034686;28;20175;-81
2023/10/15 12:06:16;;;;;;;1.87;1.00;;;10.40;99.90;;;;;;5034873;28;20167;-81
2023/10/15 12:08:42;;;;;;;1.07;0.97;;;10.30;59.80;;;;;;5037940;28;20702;-81
2023/10/15 12:11:08;;;;;;;1.07;0.97;;;10.20;99.90;;;;;;5053895;28;20205;-81
2023/10/15 12:13:34;;;;;;;1.67;0.90;;;10.50;1.00;;;;;;5036727;28;20181;-81
2023/10/15 12:16:00;;;;;;;1.13;1.00;;;10.60;99.90;;;;;;5036553;28;20176;-82
2023/10/15 12:18:25;;;;;;;2.27;1.10;;;10.70;99.90;;;;;;5054511;28;20204;-82
2023/10/15 12:20:52;;;;;;;1.20;0.90;;;11.00;1.00;;;;;;5036061;28;20240;-80
2023/10/15 12:23:19;;;;;;;2.13;1.00;;;11.40;99.90;;;;;;5027997;28;20186;-81
2023/10/15 12:25:45;;;;;;;1.20;1.00;;;11.50;99.90;;;;;;5042626;28;20186;-81
2023/10/15 12:28:10;;;;;;;1.90;0.90;;;11.70;99.90;;;;;;5034404;28;20179;-81
2023/10/15 12:30:36;;;;;;;1.70;0.90;;;11.80;99.90;;;;;;5016253;28;20688;-81
2023/10/15 12:33:02;;;;;;;1.80;1.10;;;11.70;99.90;;;;;;5032842;28;20223;-81
2023/10/15 12:35:27;;;;;;;3.63;1.00;;;11.40;99.90;;;;;;5036191;28;20191;-81
2023/10/15 12:38:05;;;;;;;1.70;1.10;;;11.20;1.00;;;;;;5036195;28;20626;-81
2023/10/15 12:40:34;;;;;;;0.90;0.87;;;11.20;1.00;;;;;;5053728;28;20220;-79
2023/10/15 12:43:09;;;;;;;2.83;1.20;;;11.20;99.90;;;;;;5053351;28;20215;-81
2023/10/15 12:45:35;;;;;;;3.23;2.07;;;10.90;99.90;;;;;;5035779;28;20192;-81
2023/10/15 12:48:01;;;;;;;1.50;1.30;;;11.20;99.90;;;;;;5036080;28;20186;-81
2023/10/15 12:50:28;;;;;;;1.93;1.20;;;11.10;99.90;;;;;;5018094;28;20666;-81
2023/10/15 12:52:56;;;;;;;1.70;1.10;;;11.20;99.90;;;;;;5028695;28;20170;-81
2023/10/15 12:55:23;;;;;;;1.80;1.27;;;11.70;99.90;;;;;;5053923;28;20180;-81
2023/10/15 12:57:50;;;;;;;2.03;1.30;;;11.80;1.00;;;;;;5045611;28;20181;-81
2023/10/15 13:00:21;;;;;;;2.83;1.73;;;11.50;99.90;;;;;;5027667;28;20170;-81
2023/10/15 13:02:50;;;;;;;1.50;1.03;;;11.40;99.90;;;;;;5127215;22;20696;-82
2023/10/15 13:05:21;;;;;;;1.67;0.83;;;11.20;1.00;;;;;;5055322;28;20183;-82
2023/10/15 13:07:49;;;;;;;1.30;0.90;;;11.00;1.00;;;;;;5055307;28;20180;-84
2023/10/15 13:10:17;;;;;;;1.03;1.00;;;10.80;1.00;;;;;;5055671;28;20168;-82
2023/10/15 13:12:44;;;;;;;1.27;0.93;;;10.70;99.90;;;;;;5054746;28;20201;-84
2023/10/15 13:15:10;;;;;;;1.40;1.00;;;11.20;15.30;;;;;;5055511;28;20180;-82
2023/10/15 13:17:37;;;;;;;2.00;0.90;;;11.70;1.00;;;;;;5070595;28;20177;-82
2023/10/15 13:20:06;;;;;;;2.20;1.20;;;11.50;99.90;;;;;;5049569;28;20173;-82